Aviation Digital Data Service (ADDS)

Output produced by TAFs form (1131 UTC 19 January 2018)
found at http://www.aviationweather.gov/adds/tafs/
 
RJEC 191100Z 16005KT 9999 -SHSN FEW008 SCT018 BKN025 M07/M09 Q1017
TAF RJEC 191111Z 1912/2018 17006KT 9999 FEW008 BKN020 
     TEMPO 1912/1915 4000 -SHSN 
     BECMG 2000/2003 18018KT 
     TEMPO 2006/2009 1500 -SHSN FEW005 BKN008 
     BECMG 2012/2015 34004KT